sensor_id;sensor_type;location;lat;lon;timestamp;pressure;altitude;pressure_sealevel;temperature;humidity
27805;BME280;15183;51.350;11.102;2023-01-09T00:01:23;98362.72;;;9.48;67.69
27805;BME280;15183;51.350;11.102;2023-01-09T00:03:50;98345.44;;;9.35;67.52
27805;BME280;15183;51.350;11.102;2023-01-09T00:06:17;98360.56;;;9.40;67.48
27805;BME280;15183;51.350;11.102;2023-01-09T00:08:43;98338.84;;;9.33;67.28
27805;BME280;15183;51.350;11.102;2023-01-09T00:11:10;98326.06;;;9.24;67.83
27805;BME280;15183;51.350;11.102;2023-01-09T00:13:36;98346.00;;;9.43;67.78
27805;BME280;15183;51.350;11.102;2023-01-09T00:16:07;98323.56;;;9.40;67.66
27805;BME280;15183;51.350;11.102;2023-01-09T00:18:34;98325.69;;;9.43;68.02
27805;BME280;15183;51.350;11.102;2023-01-09T00:21:04;98301.53;;;9.29;68.17
27805;BME280;15183;51.350;11.102;2023-01-09T00:23:31;98274.56;;;9.22;67.59
27805;BME280;15183;51.350;11.102;2023-01-09T00:26:07;98292.56;;;9.30;67.90
27805;BME280;15183;51.350;11.102;2023-01-09T00:28:34;98283.03;;;9.24;68.24
27805;BME280;15183;51.350;11.102;2023-01-09T00:31:02;98282.50;;;9.27;68.43
27805;BME280;15183;51.350;11.102;2023-01-09T00:33:34;98281.78;;;9.37;68.42
27805;BME280;15183;51.350;11.102;2023-01-09T00:36:01;98261.56;;;9.20;68.07
27805;BME280;15183;51.350;11.102;2023-01-09T00:38:28;98256.09;;;9.32;68.37
27805;BME280;15183;51.350;11.102;2023-01-09T00:40:54;98261.94;;;9.34;68.91
27805;BME280;15183;51.350;11.102;2023-01-09T00:43:26;98264.31;;;9.36;68.65
27805;BME280;15183;51.350;11.102;2023-01-09T00:45:53;98273.56;;;9.38;69.02
27805;BME280;15183;51.350;11.102;2023-01-09T00:48:21;98272.53;;;9.45;69.09
27805;BME280;15183;51.350;11.102;2023-01-09T00:50:54;98271.00;;;9.49;69.12
27805;BME280;15183;51.350;11.102;2023-01-09T00:53:28;98263.84;;;9.49;68.77
27805;BME280;15183;51.350;11.102;2023-01-09T00:56:06;98240.81;;;9.45;68.81
27805;BME280;15183;51.350;11.102;2023-01-09T00:58:34;98261.31;;;9.70;69.14
27805;BME280;15183;51.350;11.102;2023-01-09T01:01:01;98256.88;;;9.86;69.10
27805;BME280;15183;51.350;11.102;2023-01-09T01:03:28;98247.34;;;9.90;69.06
27805;BME280;15183;51.350;11.102;2023-01-09T01:05:54;98225.13;;;9.86;69.33
27805;BME280;15183;51.350;11.102;2023-01-09T01:08:39;98263.25;;;10.11;68.65
27805;BME280;15183;51.350;11.102;2023-01-09T01:11:08;98255.59;;;10.14;68.71
27805;BME280;15183;51.350;11.102;2023-01-09T01:13:36;98256.66;;;10.13;68.54
27805;BME280;15183;51.350;11.102;2023-01-09T01:16:09;98268.31;;;10.18;68.32
27805;BME280;15183;51.350;11.102;2023-01-09T01:18:36;98252.41;;;10.07;68.44
27805;BME280;15183;51.350;11.102;2023-01-09T01:21:07;98263.00;;;10.07;68.50
27805;BME280;15183;51.350;11.102;2023-01-09T01:23:35;98245.47;;;9.91;68.19
27805;BME280;15183;51.350;11.102;2023-01-09T01:26:12;98266.94;;;10.05;68.56
27805;BME280;15183;51.350;11.102;2023-01-09T01:28:39;98202.00;;;9.55;68.46
27805;BME280;15183;51.350;11.102;2023-01-09T01:31:06;98257.41;;;9.98;69.26
27805;BME280;15183;51.350;11.102;2023-01-09T01:33:33;98250.53;;;10.03;68.75
27805;BME280;15183;51.350;11.102;2023-01-09T01:36:06;98180.31;;;9.53;68.65
27805;BME280;15183;51.350;11.102;2023-01-09T01:38:34;98250.00;;;10.01;68.79
27805;BME280;15183;51.350;11.102;2023-01-09T01:41:01;98217.44;;;9.79;68.69
27805;BME280;15183;51.350;11.102;2023-01-09T01:43:52;98257.44;;;10.04;69.15
27805;BME280;15183;51.350;11.102;2023-01-09T01:46:19;98250.03;;;10.06;69.03
27805;BME280;15183;51.350;11.102;2023-01-09T01:48:49;98234.66;;;9.92;68.62
27805;BME280;15183;51.350;11.102;2023-01-09T01:51:18;98254.56;;;10.21;69.05
27805;BME280;15183;51.350;11.102;2023-01-09T01:53:52;98234.97;;;10.11;69.14
27805;BME280;15183;51.350;11.102;2023-01-09T01:56:27;98251.91;;;10.31;69.25
27805;BME280;15183;51.350;11.102;2023-01-09T01:59:06;98248.72;;;10.34;69.40
27805;BME280;15183;51.350;11.102;2023-01-09T02:01:34;98230.44;;;10.17;68.92
27805;BME280;15183;51.350;11.102;2023-01-09T02:04:06;98242.13;;;10.32;69.18
27805;BME280;15183;51.350;11.102;2023-01-09T02:06:33;98243.72;;;10.33;69.99
27805;BME280;15183;51.350;11.102;2023-01-09T02:09:03;98223.31;;;10.23;69.57
27805;BME280;15183;51.350;11.102;2023-01-09T02:11:30;98221.72;;;10.22;69.65
27805;BME280;15183;51.350;11.102;2023-01-09T02:13:58;98224.09;;;10.18;70.08
27805;BME280;15183;51.350;11.102;2023-01-09T02:16:50;98234.16;;;10.16;70.44
27805;BME280;15183;51.350;11.102;2023-01-09T02:31:52;98215.34;;;9.97;72.54
27805;BME280;15183;51.350;11.102;2023-01-09T02:34:38;98211.91;;;10.02;72.82
27805;BME280;15183;51.350;11.102;2023-01-09T02:40:32;98210.03;;;9.97;73.15
27805;BME280;15183;51.350;11.102;2023-01-09T02:43:00;98215.63;;;10.01;73.51
27805;BME280;15183;51.350;11.102;2023-01-09T02:45:27;98173.53;;;9.83;73.72
27805;BME280;15183;51.350;11.102;2023-01-09T02:47:54;98199.22;;;9.93;73.87
27805;BME280;15183;51.350;11.102;2023-01-09T02:50:30;98193.41;;;10.02;73.58
27805;BME280;15183;51.350;11.102;2023-01-09T02:56:40;98183.06;;;9.95;73.59
27805;BME280;15183;51.350;11.102;2023-01-09T02:59:20;98180.41;;;9.90;74.35
27805;BME280;15183;51.350;11.102;2023-01-09T03:02:15;98163.47;;;9.85;74.13
27805;BME280;15183;51.350;11.102;2023-01-09T03:05:21;98158.72;;;9.82;74.32
27805;BME280;15183;51.350;11.102;2023-01-09T03:07:59;98175.66;;;9.92;74.57
27805;BME280;15183;51.350;11.102;2023-01-09T03:10:51;98177.75;;;9.90;74.38
27805;BME280;15183;51.350;11.102;2023-01-09T03:13:24;98164.25;;;9.81;74.60
27805;BME280;15183;51.350;11.102;2023-01-09T03:15:53;98157.66;;;9.78;74.80
27805;BME280;15183;51.350;11.102;2023-01-09T03:18:24;98166.38;;;9.79;75.30
27805;BME280;15183;51.350;11.102;2023-01-09T03:20:54;98163.72;;;9.84;75.17
27805;BME280;15183;51.350;11.102;2023-01-09T03:23:21;98149.44;;;9.80;75.12
27805;BME280;15183;51.350;11.102;2023-01-09T03:25:47;98162.16;;;9.88;75.23
27805;BME280;15183;51.350;11.102;2023-01-09T03:28:40;98155.00;;;9.83;74.98
27805;BME280;15183;51.350;11.102;2023-01-09T03:31:07;98077.72;;;9.35;75.89
27805;BME280;15183;51.350;11.102;2023-01-09T03:33:34;98133.56;;;9.75;75.22
27805;BME280;15183;51.350;11.102;2023-01-09T03:36:00;98120.09;;;9.71;75.53
27805;BME280;15183;51.350;11.102;2023-01-09T03:38:27;98118.75;;;9.68;75.61
27805;BME280;15183;51.350;11.102;2023-01-09T03:40:53;98102.06;;;9.52;75.78
27805;BME280;15183;51.350;11.102;2023-01-09T03:43:20;98124.03;;;9.68;75.87
27805;BME280;15183;51.350;11.102;2023-01-09T03:45:46;98133.84;;;9.73;76.06
27805;BME280;15183;51.350;11.102;2023-01-09T03:48:13;98122.69;;;9.66;76.02
27805;BME280;15183;51.350;11.102;2023-01-09T03:50:39;98064.22;;;9.31;76.02
27805;BME280;15183;51.350;11.102;2023-01-09T03:53:14;98112.69;;;9.68;76.33
27805;BME280;15183;51.350;11.102;2023-01-09T03:55:45;98110.56;;;9.70;76.42
27805;BME280;15183;51.350;11.102;2023-01-09T03:58:14;98112.41;;;9.75;76.20
27805;BME280;15183;51.350;11.102;2023-01-09T04:00:41;98110.03;;;9.73;76.03
27805;BME280;15183;51.350;11.102;2023-01-09T04:03:08;98107.13;;;9.75;76.53
27805;BME280;15183;51.350;11.102;2023-01-09T04:05:35;98070.88;;;9.49;76.29
27805;BME280;15183;51.350;11.102;2023-01-09T04:08:01;98101.31;;;9.73;76.45
27805;BME280;15183;51.350;11.102;2023-01-09T04:10:28;98098.66;;;9.78;76.55
27805;BME280;15183;51.350;11.102;2023-01-09T04:12:54;98066.13;;;9.62;76.78
27805;BME280;15183;51.350;11.102;2023-01-09T04:15:21;98112.69;;;9.94;76.41
27805;BME280;15183;51.350;11.102;2023-01-09T04:17:48;98093.66;;;9.81;76.32
27805;BME280;15183;51.350;11.102;2023-01-09T04:20:15;98090.19;;;9.76;76.32
27805;BME280;15183;51.350;11.102;2023-01-09T04:22:41;98112.69;;;9.94;76.94
27805;BME280;15183;51.350;11.102;2023-01-09T04:25:09;98113.22;;;9.96;76.51
27805;BME280;15183;51.350;11.102;2023-01-09T04:27:35;98105.56;;;9.89;76.93
27805;BME280;15183;51.350;11.102;2023-01-09T04:30:03;98100.00;;;9.91;76.72
27805;BME280;15183;51.350;11.102;2023-01-09T04:32:30;98087.56;;;9.86;76.91
27805;BME280;15183;51.350;11.102;2023-01-09T04:34:56;98099.19;;;10.06;76.79
27805;BME280;15183;51.350;11.102;2023-01-09T04:37:23;98082.81;;;9.93;77.26
27805;BME280;15183;51.350;11.102;2023-01-09T04:39:50;98066.94;;;9.93;76.87
27805;BME280;15183;51.350;11.102;2023-01-09T04:42:17;98095.25;;;10.13;77.07
27805;BME280;15183;51.350;11.102;2023-01-09T04:44:43;98096.00;;;10.14;77.00
27805;BME280;15183;51.350;11.102;2023-01-09T04:47:10;98087.00;;;10.15;76.90
27805;BME280;15183;51.350;11.102;2023-01-09T04:49:38;98062.97;;;10.06;77.27
27805;BME280;15183;51.350;11.102;2023-01-09T04:52:05;98059.78;;;10.04;77.24
27805;BME280;15183;51.350;11.102;2023-01-09T04:54:32;98009.28;;;9.69;76.83
27805;BME280;15183;51.350;11.102;2023-01-09T04:56:59;98078.53;;;10.18;77.11
27805;BME280;15183;51.350;11.102;2023-01-09T04:59:25;98082.53;;;10.21;77.16
27805;BME280;15183;51.350;11.102;2023-01-09T05:01:52;98081.47;;;10.22;77.05
27805;BME280;15183;51.350;11.102;2023-01-09T05:04:20;98088.06;;;10.30;77.14
27805;BME280;15183;51.350;11.102;2023-01-09T05:06:47;98082.00;;;10.24;77.14
27805;BME280;15183;51.350;11.102;2023-01-09T05:09:13;98073.53;;;10.22;76.87
27805;BME280;15183;51.350;11.102;2023-01-09T05:11:39;98091.78;;;10.34;77.47
27805;BME280;15183;51.350;11.102;2023-01-09T05:14:06;98074.31;;;10.27;77.42
27805;BME280;15183;51.350;11.102;2023-01-09T05:16:33;98090.44;;;10.36;77.59
27805;BME280;15183;51.350;11.102;2023-01-09T05:18:59;98069.00;;;10.22;77.43
27805;BME280;15183;51.350;11.102;2023-01-09T05:21:26;98076.44;;;10.31;77.83
27805;BME280;15183;51.350;11.102;2023-01-09T05:23:53;98100.25;;;10.46;77.81
27805;BME280;15183;51.350;11.102;2023-01-09T05:26:22;98088.06;;;10.45;77.79
27805;BME280;15183;51.350;11.102;2023-01-09T05:28:58;98103.94;;;10.55;77.54
27805;BME280;15183;51.350;11.102;2023-01-09T05:31:26;98106.03;;;10.59;77.63
27805;BME280;15183;51.350;11.102;2023-01-09T05:33:53;98107.91;;;10.58;77.40
27805;BME280;15183;51.350;11.102;2023-01-09T05:36:19;98128.28;;;10.68;77.52
27805;BME280;15183;51.350;11.102;2023-01-09T05:38:46;98102.34;;;10.54;77.36
27805;BME280;15183;51.350;11.102;2023-01-09T05:41:12;98108.94;;;10.62;77.62
27805;BME280;15183;51.350;11.102;2023-01-09T05:43:38;98089.63;;;10.51;77.50
27805;BME280;15183;51.350;11.102;2023-01-09T05:46:05;98112.38;;;10.68;77.68
27805;BME280;15183;51.350;11.102;2023-01-09T05:48:31;98119.50;;;10.73;77.40
27805;BME280;15183;51.350;11.102;2023-01-09T05:50:58;98096.00;;;10.61;77.40
27805;BME280;15183;51.350;11.102;2023-01-09T05:53:24;98115.03;;;10.73;77.22
27805;BME280;15183;51.350;11.102;2023-01-09T05:55:50;98110.25;;;10.70;77.13
27805;BME280;15183;51.350;11.102;2023-01-09T05:58:17;98131.97;;;10.77;76.94
27805;BME280;15183;51.350;11.102;2023-01-09T06:00:43;98131.16;;;10.71;77.20
27805;BME280;15183;51.350;11.102;2023-01-09T06:03:10;98129.31;;;10.72;77.08
27805;BME280;15183;51.350;11.102;2023-01-09T06:05:36;98118.47;;;10.68;77.49
27805;BME280;15183;51.350;11.102;2023-01-09T06:08:02;98122.19;;;10.67;77.16
27805;BME280;15183;51.350;11.102;2023-01-09T06:10:29;98125.63;;;10.68;77.40
27805;BME280;15183;51.350;11.102;2023-01-09T06:12:55;98138.06;;;10.67;77.37
27805;BME280;15183;51.350;11.102;2023-01-09T06:15:22;98143.91;;;10.64;77.62
27805;BME280;15183;51.350;11.102;2023-01-09T06:17:48;98094.16;;;10.30;77.53
27805;BME280;15183;51.350;11.102;2023-01-09T06:20:14;98126.72;;;10.41;77.59
27805;BME280;15183;51.350;11.102;2023-01-09T06:22:41;98123.25;;;10.35;77.54
27805;BME280;15183;51.350;11.102;2023-01-09T06:25:10;98087.56;;;10.07;77.69
27805;BME280;15183;51.350;11.102;2023-01-09T06:27:37;98143.13;;;10.43;77.93
27805;BME280;15183;51.350;11.102;2023-01-09T06:30:04;98167.47;;;10.55;77.96
27805;BME280;15183;51.350;11.102;2023-01-09T06:32:31;98153.72;;;10.38;78.06
27805;BME280;15183;51.350;11.102;2023-01-09T06:34:57;98174.91;;;10.53;78.13
27805;BME280;15183;51.350;11.102;2023-01-09T06:37:23;98160.91;;;10.42;77.81
27805;BME280;15183;51.350;11.102;2023-01-09T06:39:50;98187.06;;;10.54;78.31
27805;BME280;15183;51.350;11.102;2023-01-09T06:42:16;98174.91;;;10.48;78.25
27805;BME280;15183;51.350;11.102;2023-01-09T06:44:43;98199.53;;;10.59;78.09
27805;BME280;15183;51.350;11.102;2023-01-09T06:47:09;98188.41;;;10.62;78.31
27805;BME280;15183;51.350;11.102;2023-01-09T06:49:35;98196.88;;;10.64;78.50
27805;BME280;15183;51.350;11.102;2023-01-09T06:52:02;98182.06;;;10.53;78.58
27805;BME280;15183;51.350;11.102;2023-01-09T06:54:30;98210.13;;;10.59;78.77
27805;BME280;15183;51.350;11.102;2023-01-09T06:56:57;98208.81;;;10.62;78.54
27805;BME280;15183;51.350;11.102;2023-01-09T06:59:23;98197.41;;;10.56;78.53
27805;BME280;15183;51.350;11.102;2023-01-09T07:01:49;98221.78;;;10.63;78.58
27805;BME280;15183;51.350;11.102;2023-01-09T07:04:16;98240.31;;;10.68;78.31
27805;BME280;15183;51.350;11.102;2023-01-09T07:06:46;98186.25;;;10.28;78.49
27805;BME280;15183;51.350;11.102;2023-01-09T07:09:13;98250.13;;;10.63;78.64
27805;BME280;15183;51.350;11.102;2023-01-09T07:11:40;98239.50;;;10.57;78.55
27805;BME280;15183;51.350;11.102;2023-01-09T07:14:06;98250.13;;;10.63;78.56
27805;BME280;15183;51.350;11.102;2023-01-09T07:16:33;98206.09;;;10.20;78.56
27805;BME280;15183;51.350;11.102;2023-01-09T07:18:59;98258.03;;;10.57;79.24
27805;BME280;15183;51.350;11.102;2023-01-09T07:21:26;98241.63;;;10.45;78.97
27805;BME280;15183;51.350;11.102;2023-01-09T07:23:52;98252.50;;;10.49;78.71
27805;BME280;15183;51.350;11.102;2023-01-09T07:26:19;98225.97;;;10.33;79.02
27805;BME280;15183;51.350;11.102;2023-01-09T07:28:45;98262.56;;;10.57;78.81
27805;BME280;15183;51.350;11.102;2023-01-09T07:31:12;98261.78;;;10.62;79.12
27805;BME280;15183;51.350;11.102;2023-01-09T07:33:38;98253.56;;;10.58;79.03
27805;BME280;15183;51.350;11.102;2023-01-09T07:36:05;98274.19;;;10.77;78.83
27805;BME280;15183;51.350;11.102;2023-01-09T07:38:32;98275.78;;;10.78;78.92
27805;BME280;15183;51.350;11.102;2023-01-09T07:40:58;98263.88;;;10.70;79.04
27805;BME280;15183;51.350;11.102;2023-01-09T07:43:25;98261.22;;;10.75;78.84
27805;BME280;15183;51.350;11.102;2023-01-09T07:45:51;98269.97;;;10.76;78.82
27805;BME280;15183;51.350;11.102;2023-01-09T07:48:17;98266.53;;;10.75;78.70
27805;BME280;15183;51.350;11.102;2023-01-09T07:50:44;98258.59;;;10.65;78.54
27805;BME280;15183;51.350;11.102;2023-01-09T07:53:10;98269.72;;;10.72;78.54
27805;BME280;15183;51.350;11.102;2023-01-09T07:55:37;98262.81;;;10.55;78.44
27805;BME280;15183;51.350;11.102;2023-01-09T07:58:03;98280.31;;;10.67;78.33
27805;BME280;15183;51.350;11.102;2023-01-09T08:00:29;98290.63;;;10.63;78.38
27805;BME280;15183;51.350;11.102;2023-01-09T08:02:56;98275.81;;;10.52;78.70
27805;BME280;15183;51.350;11.102;2023-01-09T08:05:22;98287.97;;;10.48;78.33
27805;BME280;15183;51.350;11.102;2023-01-09T08:07:49;98290.88;;;10.46;78.46
27805;BME280;15183;51.350;11.102;2023-01-09T08:10:17;98320.00;;;10.51;78.46
27805;BME280;15183;51.350;11.102;2023-01-09T08:12:48;98313.59;;;10.37;78.10
27805;BME280;15183;51.350;11.102;2023-01-09T08:15:15;98304.84;;;10.26;78.51
27805;BME280;15183;51.350;11.102;2023-01-09T08:17:43;98321.53;;;10.32;78.52
27805;BME280;15183;51.350;11.102;2023-01-09T08:20:11;98339.59;;;10.40;78.57
27805;BME280;15183;51.350;11.102;2023-01-09T08:22:43;98321.78;;;10.25;78.43
27805;BME280;15183;51.350;11.102;2023-01-09T08:25:15;98329.72;;;10.30;78.53
27805;BME280;15183;51.350;11.102;2023-01-09T08:27:43;98349.91;;;10.41;78.46
27805;BME280;15183;51.350;11.102;2023-01-09T08:30:10;98341.66;;;10.38;78.56
27805;BME280;15183;51.350;11.102;2023-01-09T08:32:37;98344.84;;;10.30;78.54
27805;BME280;15183;51.350;11.102;2023-01-09T08:35:04;98348.81;;;10.37;78.44
27805;BME280;15183;51.350;11.102;2023-01-09T08:37:31;98348.53;;;10.34;78.39
27805;BME280;15183;51.350;11.102;2023-01-09T08:39:57;98353.03;;;10.28;78.14
27805;BME280;15183;51.350;11.102;2023-01-09T08:42:24;98360.44;;;10.31;78.10
27805;BME280;15183;51.350;11.102;2023-01-09T08:45:10;98345.81;;;10.13;78.15
27805;BME280;15183;51.350;11.102;2023-01-09T08:47:56;98383.19;;;10.27;78.63
27805;BME280;15183;51.350;11.102;2023-01-09T08:50:22;98362.78;;;10.17;78.52
27805;BME280;15183;51.350;11.102;2023-01-09T08:52:49;98378.44;;;10.29;77.96
27805;BME280;15183;51.350;11.102;2023-01-09T08:55:15;98387.72;;;10.26;77.94
27805;BME280;15183;51.350;11.102;2023-01-09T08:57:52;98386.91;;;10.26;77.86
27805;BME280;15183;51.350;11.102;2023-01-09T09:00:22;98405.97;;;10.28;77.73
27805;BME280;15183;51.350;11.102;2023-01-09T09:02:57;98398.28;;;10.26;78.26
27805;BME280;15183;51.350;11.102;2023-01-09T09:05:25;98424.75;;;10.26;78.20
27805;BME280;15183;51.350;11.102;2023-01-09T09:07:53;98409.66;;;10.22;78.22
27805;BME280;15183;51.350;11.102;2023-01-09T09:10:23;98403.28;;;10.18;77.84
27805;BME280;15183;51.350;11.102;2023-01-09T09:12:54;98392.94;;;10.16;78.18
27805;BME280;15183;51.350;11.102;2023-01-09T09:15:22;98429.25;;;10.26;77.82
27805;BME280;15183;51.350;11.102;2023-01-09T09:17:51;98416.75;;;10.16;78.15
27805;BME280;15183;51.350;11.102;2023-01-09T09:20:29;98400.63;;;10.12;78.15
27805;BME280;15183;51.350;11.102;2023-01-09T09:22:56;98426.59;;;10.21;78.28
27805;BME280;15183;51.350;11.102;2023-01-09T09:25:23;98434.53;;;10.26;78.10
27805;BME280;15183;51.350;11.102;2023-01-09T09:27:50;98421.00;;;10.22;78.10
27805;BME280;15183;51.350;11.102;2023-01-09T09:30:18;98411.44;;;10.11;78.19
27805;BME280;15183;51.350;11.102;2023-01-09T09:32:45;98417.03;;;10.14;78.23
27805;BME280;15183;51.350;11.102;2023-01-09T09:35:12;98440.66;;;10.26;78.36
27805;BME280;15183;51.350;11.102;2023-01-09T09:37:38;98453.44;;;10.45;78.92
27805;BME280;15183;51.350;11.102;2023-01-09T09:40:09;98463.84;;;10.67;79.25
27805;BME280;15183;51.350;11.102;2023-01-09T09:43:22;98464.69;;;10.89;79.22
27805;BME280;15183;51.350;11.102;2023-01-09T09:46:42;98455.16;;;10.98;79.59
27805;BME280;15183;51.350;11.102;2023-01-09T09:49:18;98454.69;;;11.22;79.72
27805;BME280;15183;51.350;11.102;2023-01-09T09:52:12;98460.00;;;11.37;79.70
27805;BME280;15183;51.350;11.102;2023-01-09T09:54:48;98432.41;;;11.49;79.73
27805;BME280;15183;51.350;11.102;2023-01-09T09:57:27;98444.06;;;11.68;79.66
27805;BME280;15183;51.350;11.102;2023-01-09T09:59:55;98435.84;;;11.75;79.09
27805;BME280;15183;51.350;11.102;2023-01-09T10:02:31;98449.63;;;11.77;78.98
27805;BME280;15183;51.350;11.102;2023-01-09T10:05:17;98434.50;;;11.67;78.01
27805;BME280;15183;51.350;11.102;2023-01-09T10:07:49;98449.63;;;11.72;78.58
27805;BME280;15183;51.350;11.102;2023-01-09T10:10:33;98437.16;;;11.67;78.63
27805;BME280;15183;51.350;11.102;2023-01-09T10:13:03;98444.59;;;11.76;78.58
27805;BME280;15183;51.350;11.102;2023-01-09T10:19:04;98467.38;;;11.92;78.20
27805;BME280;15183;51.350;11.102;2023-01-09T10:21:59;98470.53;;;11.99;78.49
27805;BME280;15183;51.350;11.102;2023-01-09T10:28:10;98456.75;;;12.18;78.51
27805;BME280;15183;51.350;11.102;2023-01-09T10:31:07;98473.16;;;12.30;78.24
27805;BME280;15183;51.350;11.102;2023-01-09T10:37:12;98448.25;;;12.11;78.27
27805;BME280;15183;51.350;11.102;2023-01-09T10:42:51;98476.88;;;12.29;77.73
27805;BME280;15183;51.350;11.102;2023-01-09T10:48:25;98445.06;;;12.19;78.10
27805;BME280;15183;51.350;11.102;2023-01-09T10:50:55;98462.53;;;12.30;77.63
27805;BME280;15183;51.350;11.102;2023-01-09T10:53:31;98478.69;;;12.44;78.39
27805;BME280;15183;51.350;11.102;2023-01-09T10:56:07;98449.69;;;12.48;78.04
27805;BME280;15183;51.350;11.102;2023-01-09T10:58:36;98448.41;;;12.45;77.89
27805;BME280;15183;51.350;11.102;2023-01-09T11:01:03;98485.50;;;12.71;77.86
27805;BME280;15183;51.350;11.102;2023-01-09T11:03:30;98478.25;;;12.82;77.82
27805;BME280;15183;51.350;11.102;2023-01-09T11:05:58;98483.56;;;12.82;77.85
27805;BME280;15183;51.350;11.102;2023-01-09T11:08:58;98472.41;;;12.80;77.28
27805;BME280;15183;51.350;11.102;2023-01-09T11:11:35;98487.50;;;12.90;77.28
27805;BME280;15183;51.350;11.102;2023-01-09T11:14:16;98498.06;;;13.00;76.95
27805;BME280;15183;51.350;11.102;2023-01-09T11:16:54;98495.69;;;13.04;77.27
27805;BME280;15183;51.350;11.102;2023-01-09T11:19:22;98468.88;;;12.95;77.24
27805;BME280;15183;51.350;11.102;2023-01-09T11:22:06;98454.88;;;12.79;76.87
27805;BME280;15183;51.350;11.102;2023-01-09T11:24:34;98442.47;;;12.69;76.80
27805;BME280;15183;51.350;11.102;2023-01-09T11:29:42;98487.41;;;13.11;76.89
27805;BME280;15183;51.350;11.102;2023-01-09T11:32:22;98501.75;;;13.15;76.88
27805;BME280;15183;51.350;11.102;2023-01-09T11:34:49;98511.50;;;13.25;76.88
27805;BME280;15183;51.350;11.102;2023-01-09T11:37:29;98467.56;;;12.93;76.73
27805;BME280;15183;51.350;11.102;2023-01-09T11:39:58;98499.81;;;13.21;76.74
27805;BME280;15183;51.350;11.102;2023-01-09T11:42:29;98501.66;;;13.25;76.33
27805;BME280;15183;51.350;11.102;2023-01-09T11:45:19;98479.44;;;13.11;76.19
27805;BME280;15183;51.350;11.102;2023-01-09T11:47:46;98497.00;;;13.01;76.26
27805;BME280;15183;51.350;11.102;2023-01-09T11:50:19;98469.25;;;12.73;76.26
27805;BME280;15183;51.350;11.102;2023-01-09T11:53:06;98434.09;;;12.36;76.66
27805;BME280;15183;51.350;11.102;2023-01-09T11:55:36;98476.41;;;12.78;77.57
27805;BME280;15183;51.350;11.102;2023-01-09T11:58:03;98441.16;;;12.62;77.34
27805;BME280;15183;51.350;11.102;2023-01-09T12:00:43;98407.84;;;12.29;77.06
27805;BME280;15183;51.350;11.102;2023-01-09T12:08:59;98450.31;;;12.85;77.44
27805;BME280;15183;51.350;11.102;2023-01-09T12:14:44;98479.69;;;13.09;77.30
27805;BME280;15183;51.350;11.102;2023-01-09T12:17:26;98437.56;;;12.87;77.15
27805;BME280;15183;51.350;11.102;2023-01-09T12:23:12;98442.81;;;12.97;77.13
27805;BME280;15183;51.350;11.102;2023-01-09T12:34:51;98456.19;;;13.22;76.88
27805;BME280;15183;51.350;11.102;2023-01-09T12:38:09;98466.00;;;13.26;76.91
27805;BME280;15183;51.350;11.102;2023-01-09T12:46:22;98454.69;;;13.10;76.36
27805;BME280;15183;51.350;11.102;2023-01-09T12:49:31;98472.97;;;13.22;76.30
27805;BME280;15183;51.350;11.102;2023-01-09T12:52:15;98462.09;;;13.13;76.29
27805;BME280;15183;51.350;11.102;2023-01-09T12:54:57;98466.31;;;13.20;76.63
27805;BME280;15183;51.350;11.102;2023-01-09T12:57:30;98479.34;;;13.21;76.18
27805;BME280;15183;51.350;11.102;2023-01-09T13:03:16;98479.38;;;13.16;76.36
27805;BME280;15183;51.350;11.102;2023-01-09T13:05:48;98491.56;;;13.22;76.26
27805;BME280;15183;51.350;11.102;2023-01-09T13:08:40;98483.84;;;13.26;76.06
27805;BME280;15183;51.350;11.102;2023-01-09T13:11:27;98472.97;;;13.22;76.32
27805;BME280;15183;51.350;11.102;2023-01-09T13:14:16;98495.19;;;13.37;76.09
27805;BME280;15183;51.350;11.102;2023-01-09T13:16:51;98419.50;;;12.84;75.63
27805;BME280;15183;51.350;11.102;2023-01-09T13:19:26;98491.44;;;13.43;75.73
27805;BME280;15183;51.350;11.102;2023-01-09T13:21:55;98452.72;;;13.26;76.05
27805;BME280;15183;51.350;11.102;2023-01-09T13:24:30;98436.50;;;13.23;75.89
27805;BME280;15183;51.350;11.102;2023-01-09T13:27:04;98464.31;;;13.46;75.76
27805;BME280;15183;51.350;11.102;2023-01-09T13:29:36;98483.56;;;13.62;75.77
27805;BME280;15183;51.350;11.102;2023-01-09T13:32:35;98498.72;;;13.67;75.23
27805;BME280;15183;51.350;11.102;2023-01-09T13:35:14;98490.03;;;13.56;75.29
27805;BME280;15183;51.350;11.102;2023-01-09T13:37:41;98497.44;;;13.59;75.16
27805;BME280;15183;51.350;11.102;2023-01-09T13:42:56;98510.69;;;13.69;75.42
27805;BME280;15183;51.350;11.102;2023-01-09T13:45:27;98434.41;;;13.20;75.10
27805;BME280;15183;51.350;11.102;2023-01-09T13:50:45;98487.06;;;13.63;75.02
27805;BME280;15183;51.350;11.102;2023-01-09T14:06:40;98514.00;;;13.51;74.92
27805;BME280;15183;51.350;11.102;2023-01-09T14:09:20;98517.75;;;13.50;74.31
27805;BME280;15183;51.350;11.102;2023-01-09T14:11:47;98531.00;;;13.55;74.56
27805;BME280;15183;51.350;11.102;2023-01-09T14:14:29;98470.13;;;13.08;74.40
27805;BME280;15183;51.350;11.102;2023-01-09T14:16:58;98459.22;;;13.05;74.35
27805;BME280;15183;51.350;11.102;2023-01-09T14:19:34;98529.50;;;13.38;74.16
27805;BME280;15183;51.350;11.102;2023-01-09T14:22:03;98550.50;;;13.40;73.82
27805;BME280;15183;51.350;11.102;2023-01-09T14:24:42;98531.72;;;13.21;73.27
27805;BME280;15183;51.350;11.102;2023-01-09T14:31:24;98569.78;;;13.21;73.76
27805;BME280;15183;51.350;11.102;2023-01-09T14:36:22;98585.50;;;13.12;74.04
27805;BME280;15183;51.350;11.102;2023-01-09T14:39:00;98585.28;;;13.03;74.02
27805;BME280;15183;51.350;11.102;2023-01-09T14:47:33;98581.88;;;12.87;74.08
27805;BME280;15183;51.350;11.102;2023-01-09T14:50:10;98609.22;;;12.98;74.02
27805;BME280;15183;51.350;11.102;2023-01-09T14:52:51;98588.25;;;12.86;74.10
27805;BME280;15183;51.350;11.102;2023-01-09T14:55:41;98610.03;;;12.99;73.70